createdAt,value
2022-11-24T00:01:07.441Z,94.88
2022-11-24T00:03:36.675Z,94.75
2022-11-24T00:06:05.079Z,94.48
2022-11-24T00:08:31.666Z,94.72
2022-11-24T00:11:06.612Z,94.71
2022-11-24T00:13:34.378Z,94.96
2022-11-24T00:16:11.978Z,95.15
2022-11-24T00:18:40.387Z,95.00
2022-11-24T00:21:09.611Z,95.08
2022-11-24T00:23:36.398Z,95.06
2022-11-24T00:26:14.802Z,95.37
2022-11-24T00:28:42.795Z,95.26
2022-11-24T00:31:21.720Z,95.04
2022-11-24T00:33:50.236Z,94.94
2022-11-24T00:36:17.855Z,94.99
2022-11-24T00:38:47.250Z,95.24
2022-11-24T00:41:16.556Z,95.20
2022-11-24T00:43:43.092Z,95.20
2022-11-24T00:46:12.290Z,95.51
2022-11-24T00:48:39.038Z,95.32
2022-11-24T00:51:08.524Z,95.19
2022-11-24T00:53:35.467Z,95.19
2022-11-24T00:56:06.764Z,95.36
2022-11-24T00:58:36.508Z,95.52
2022-11-24T01:01:09.385Z,95.33
2022-11-24T01:03:36.498Z,94.98
2022-11-24T01:06:08.601Z,95.05
2022-11-24T01:08:37.726Z,95.18
2022-11-24T01:11:19.509Z,95.03
2022-11-24T01:13:51.676Z,95.51
2022-11-24T01:16:38.721Z,94.93
2022-11-24T01:19:05.291Z,95.30
2022-11-24T01:21:34.144Z,95.55
2022-11-24T01:24:00.765Z,95.09
2022-11-24T01:26:27.368Z,95.55
2022-11-24T01:28:56.054Z,95.21
2022-11-24T01:31:23.515Z,95.23
2022-11-24T01:33:50.752Z,95.20
2022-11-24T01:36:19.959Z,95.09
2022-11-24T01:38:46.518Z,95.21
2022-11-24T01:41:19.733Z,94.98
2022-11-24T01:43:49.217Z,94.99
2022-11-24T01:46:31.306Z,95.14
2022-11-24T01:49:33.450Z,95.12
2022-11-24T01:52:07.420Z,95.42
2022-11-24T01:54:38.277Z,95.11
2022-11-24T01:57:34.589Z,94.85
2022-11-24T02:00:12.907Z,94.52
2022-11-24T02:02:44.465Z,94.24
2022-11-24T02:05:44.330Z,94.25
2022-11-24T02:08:24.892Z,93.98
2022-11-24T02:10:55.093Z,94.04
2022-11-24T02:13:24.889Z,94.15
2022-11-24T02:15:53.142Z,93.88
2022-11-24T02:18:19.849Z,93.89
2022-11-24T02:20:48.609Z,93.95
2022-11-24T02:23:33.574Z,94.08
2022-11-24T02:26:28.104Z,93.81
2022-11-24T02:28:57.190Z,93.76
2022-11-24T02:31:23.796Z,94.40
2022-11-24T02:33:51.215Z,94.18
2022-11-24T02:36:17.750Z,94.23
2022-11-24T02:38:44.363Z,94.67
2022-11-24T02:41:16.731Z,94.78
2022-11-24T02:43:47.007Z,94.78
2022-11-24T02:46:18.368Z,94.83
2022-11-24T02:48:44.863Z,94.87
2022-11-24T02:51:13.875Z,94.73
2022-11-24T02:53:40.377Z,94.69
2022-11-24T02:56:07.276Z,94.95
2022-11-24T02:58:33.928Z,95.04
2022-11-24T03:01:02.702Z,94.92
2022-11-24T03:03:29.368Z,95.03
2022-11-24T03:05:55.936Z,94.45
2022-11-24T03:08:22.517Z,94.18
2022-11-24T03:10:49.294Z,94.43
2022-11-24T03:13:15.976Z,94.42
2022-11-24T03:15:42.543Z,94.14
2022-11-24T03:18:11.436Z,94.75
2022-11-24T03:20:38.381Z,95.02
2022-11-24T03:23:05.005Z,94.25
2022-11-24T03:25:31.566Z,94.16
2022-11-24T03:27:58.356Z,94.70
2022-11-24T03:30:25.095Z,94.54
2022-11-24T03:32:53.687Z,94.19
2022-11-24T03:35:21.740Z,94.00
2022-11-24T03:37:48.673Z,94.14
2022-11-24T03:40:15.493Z,94.12
2022-11-24T03:42:42.097Z,93.63
2022-11-24T03:45:37.864Z,94.07
2022-11-24T03:47:56.192Z,94.13
2022-11-24T03:50:22.811Z,93.94
2022-11-24T03:52:49.355Z,94.14
2022-11-24T03:55:16.018Z,93.83
2022-11-24T03:57:47.950Z,94.01
2022-11-24T04:00:14.987Z,93.98
2022-11-24T04:02:41.605Z,93.79
2022-11-24T04:05:10.935Z,93.82
2022-11-24T04:07:37.522Z,93.37
2022-11-24T04:10:04.572Z,93.46
2022-11-24T04:12:46.335Z,93.44
2022-11-24T04:15:18.407Z,93.62
2022-11-24T04:17:46.526Z,93.32
2022-11-24T04:20:13.506Z,93.25
2022-11-24T04:22:40.138Z,93.49
2022-11-24T04:25:10.112Z,93.45
2022-11-24T04:27:37.836Z,93.43
2022-11-24T04:30:07.196Z,93.82
2022-11-24T04:32:36.089Z,93.21
2022-11-24T04:35:03.179Z,93.21
2022-11-24T04:37:29.743Z,93.71
2022-11-24T04:39:56.493Z,93.68
2022-11-24T04:42:23.032Z,93.69
2022-11-24T04:44:49.551Z,93.59
2022-11-24T04:47:18.495Z,93.77
2022-11-24T04:49:46.894Z,93.27
2022-11-24T04:52:13.445Z,93.12
2022-11-24T04:54:42.503Z,93.10
2022-11-24T04:57:17.090Z,93.15
2022-11-24T04:59:46.651Z,93.46
2022-11-24T05:02:15.802Z,93.34
2022-11-24T05:04:42.448Z,93.29
2022-11-24T05:07:17.667Z,93.46
2022-11-24T05:10:03.840Z,93.66
2022-11-24T05:12:31.165Z,93.68
2022-11-24T05:15:02.025Z,93.93
2022-11-24T05:17:30.867Z,93.49
2022-11-24T05:20:00.288Z,93.90
2022-11-24T05:22:29.393Z,93.88
2022-11-24T05:24:56.017Z,93.58
2022-11-24T05:27:22.938Z,93.91
2022-11-24T05:29:49.636Z,93.64
2022-11-24T05:32:16.554Z,93.70
2022-11-24T05:34:43.367Z,93.93
2022-11-24T05:37:09.970Z,93.78
2022-11-24T05:39:37.074Z,93.95
2022-11-24T05:42:25.863Z,93.79
2022-11-24T05:44:53.495Z,94.03
2022-11-24T05:47:20.414Z,93.99
2022-11-24T05:49:49.860Z,94.18
2022-11-24T05:52:16.694Z,94.24
2022-11-24T05:54:43.267Z,93.86
2022-11-24T05:57:13.235Z,94.33
2022-11-24T05:59:39.887Z,94.07
2022-11-24T06:02:10.214Z,94.16
2022-11-24T06:04:37.676Z,94.07
2022-11-24T06:07:07.517Z,93.97
2022-11-24T06:09:36.400Z,94.09
2022-11-24T06:12:03.501Z,94.06
2022-11-24T06:14:30.115Z,94.25
2022-11-24T06:16:56.727Z,94.20
2022-11-24T06:19:25.594Z,93.95
2022-11-24T06:21:52.183Z,94.35
2022-11-24T06:24:18.773Z,94.31
2022-11-24T06:26:45.281Z,94.35
2022-11-24T06:29:11.855Z,94.42
2022-11-24T06:31:41.438Z,94.48
2022-11-24T06:34:11.454Z,94.59
2022-11-24T06:36:41.613Z,94.85
2022-11-24T06:39:08.451Z,95.41
2022-11-24T06:41:35.033Z,95.28
2022-11-24T06:44:04.886Z,95.09
2022-11-24T06:46:31.828Z,95.30
2022-11-24T06:48:59.780Z,95.39
2022-11-24T06:51:27.155Z,95.13
2022-11-24T06:53:54.124Z,95.16
2022-11-24T06:56:21.774Z,95.52
2022-11-24T06:58:50.528Z,95.26
2022-11-24T07:01:19.708Z,95.24
2022-11-24T07:03:48.147Z,95.34
2022-11-24T07:06:16.160Z,95.70
2022-11-24T07:09:18.119Z,95.27
2022-11-24T07:11:44.905Z,95.02
2022-11-24T07:14:11.721Z,95.45
2022-11-24T07:16:39.102Z,95.41
2022-11-24T07:19:05.830Z,95.01
2022-11-24T07:21:32.435Z,95.09
2022-11-24T07:23:59.150Z,94.90
2022-11-24T07:26:26.722Z,94.90
2022-11-24T07:28:55.885Z,94.96
2022-11-24T07:31:25.402Z,95.21
2022-11-24T07:33:53.757Z,95.17
2022-11-24T07:36:25.630Z,95.43
2022-11-24T07:38:54.582Z,94.88
2022-11-24T07:41:21.362Z,94.88
2022-11-24T07:43:48.743Z,94.59
2022-11-24T07:46:17.940Z,94.84
2022-11-24T07:48:44.944Z,94.80
2022-11-24T07:51:11.791Z,94.52
2022-11-24T07:53:38.657Z,94.67
2022-11-24T07:56:06.535Z,94.61
2022-11-24T07:58:36.024Z,94.16
2022-11-24T08:01:14.688Z,93.78
2022-11-24T08:03:44.905Z,93.80
2022-11-24T08:06:32.569Z,94.63
2022-11-24T08:08:59.894Z,93.49
2022-11-24T08:11:27.379Z,92.95
2022-11-24T08:13:56.201Z,94.12
2022-11-24T08:16:25.323Z,93.85
2022-11-24T08:18:55.491Z,94.07
2022-11-24T08:21:25.373Z,94.17
2022-11-24T08:23:56.288Z,93.90
2022-11-24T08:26:25.063Z,93.85
2022-11-24T08:28:57.250Z,94.21
2022-11-24T08:31:27.324Z,94.26
2022-11-24T08:33:55.704Z,94.46
2022-11-24T08:36:25.387Z,93.66
2022-11-24T08:38:56.902Z,93.96
2022-11-24T08:41:24.090Z,94.21
2022-11-24T08:43:51.131Z,94.28
2022-11-24T08:46:19.371Z,94.21
2022-11-24T08:48:50.418Z,94.09
2022-11-24T08:51:19.860Z,94.02
2022-11-24T08:53:48.786Z,93.83
2022-11-24T08:56:15.502Z,93.76
2022-11-24T08:58:42.586Z,94.18
2022-11-24T09:01:17.472Z,93.75
2022-11-24T09:03:50.423Z,94.02
2022-11-24T09:06:22.772Z,93.82
2022-11-24T09:08:53.897Z,93.96
2022-11-24T09:11:20.929Z,93.75
2022-11-24T09:13:47.824Z,93.31
2022-11-24T09:16:17.225Z,93.43
2022-11-24T09:18:46.634Z,93.19
2022-11-24T09:21:19.364Z,91.84
2022-11-24T09:23:48.688Z,91.10
2022-11-24T09:26:23.122Z,90.60
2022-11-24T09:28:54.609Z,90.22
2022-11-24T09:31:24.090Z,90.09
2022-11-24T09:33:51.529Z,89.63
2022-11-24T09:36:19.381Z,89.95
2022-11-24T09:38:46.289Z,89.88
2022-11-24T09:41:34.303Z,89.68
2022-11-24T09:44:25.873Z,89.52
2022-11-24T09:47:20.919Z,89.28
2022-11-24T09:49:54.466Z,89.83
2022-11-24T09:52:33.325Z,89.75
2022-11-24T09:55:02.680Z,89.69
2022-11-24T09:57:37.512Z,89.87
2022-11-24T10:00:12.581Z,89.52
2022-11-24T10:02:41.907Z,89.39
2022-11-24T10:05:08.781Z,89.42
2022-11-24T10:07:45.424Z,89.53
2022-11-24T10:10:24.632Z,88.90
2022-11-24T10:13:25.238Z,89.30
2022-11-24T10:16:30.211Z,88.47
2022-11-24T10:19:34.466Z,88.49
2022-11-24T10:22:14.964Z,88.29
2022-11-24T10:25:09.293Z,88.45
2022-11-24T10:27:41.813Z,88.20
2022-11-24T10:30:21.029Z,88.06
2022-11-24T10:33:04.928Z,87.96
2022-11-24T10:35:47.284Z,88.13
2022-11-24T10:38:37.341Z,87.96
2022-11-24T10:41:12.731Z,87.71
2022-11-24T10:43:42.351Z,87.42
2022-11-24T10:46:17.169Z,87.31
2022-11-24T10:48:49.807Z,87.54
2022-11-24T10:51:28.822Z,87.40
2022-11-24T10:54:02.586Z,87.23
2022-11-24T10:56:39.988Z,86.86
2022-11-24T10:59:39.519Z,86.94
2022-11-24T11:02:32.910Z,86.54
2022-11-24T11:05:30.332Z,86.65
2022-11-24T11:08:35.522Z,86.45
2022-11-24T11:11:21.275Z,86.24
2022-11-24T11:14:01.655Z,85.95
2022-11-24T11:16:53.709Z,86.02
2022-11-24T11:19:58.501Z,85.76
2022-11-24T11:22:29.867Z,85.34
2022-11-24T11:25:22.314Z,85.40
2022-11-24T11:27:49.141Z,85.48
2022-11-24T11:35:49.406Z,84.71
2022-11-24T11:38:16.047Z,84.15
2022-11-24T11:40:47.926Z,84.36
2022-11-24T11:43:23.906Z,83.63
2022-11-24T11:46:02.396Z,80.44
2022-11-24T11:48:43.145Z,79.01
2022-11-24T11:51:25.894Z,80.42
2022-11-24T11:54:07.765Z,80.88
2022-11-24T11:56:44.386Z,80.93
2022-11-24T11:59:13.970Z,81.23
2022-11-24T12:02:05.418Z,81.18
2022-11-24T12:04:44.580Z,81.29
2022-11-24T12:07:29.353Z,81.26
2022-11-24T12:10:10.876Z,81.25
2022-11-24T12:12:50.818Z,81.30
2022-11-24T12:15:20.335Z,81.01
2022-11-24T12:18:04.760Z,81.17
2022-11-24T12:20:53.228Z,80.78
2022-11-24T12:24:01.274Z,81.06
2022-11-24T12:26:37.982Z,80.48
2022-11-24T12:29:32.789Z,80.79
2022-11-24T12:32:21.752Z,80.53
2022-11-24T12:34:51.013Z,76.25
2022-11-24T12:37:50.079Z,75.63
2022-11-24T12:40:35.414Z,77.07
2022-11-24T12:43:11.911Z,77.49
2022-11-24T12:45:44.288Z,77.71
2022-11-24T12:48:20.820Z,77.94
2022-11-24T12:50:50.343Z,77.88
2022-11-24T12:53:32.302Z,78.02
2022-11-24T12:56:26.661Z,78.25
2022-11-24T12:58:53.246Z,78.33
2022-11-24T13:01:32.622Z,78.41
2022-11-24T13:04:32.642Z,78.82
2022-11-24T13:07:18.746Z,78.50
2022-11-24T13:10:46.893Z,78.87
2022-11-24T13:13:17.559Z,79.03
2022-11-24T13:18:46.747Z,75.26
2022-11-24T13:21:47.320Z,74.81
2022-11-24T13:24:17.326Z,73.43
2022-11-24T13:26:49.386Z,72.36
2022-11-24T13:29:28.384Z,74.96
2022-11-24T13:31:56.423Z,75.86
2022-11-24T13:34:42.090Z,76.56
2022-11-24T13:37:35.701Z,77.01
2022-11-24T13:40:14.653Z,75.67
2022-11-24T13:43:06.210Z,77.24
2022-11-24T13:45:40.468Z,77.20
2022-11-24T13:48:38.115Z,77.88
2022-11-24T13:51:13.045Z,78.01
2022-11-24T13:53:47.124Z,78.12
2022-11-24T13:56:13.848Z,78.43
2022-11-24T13:58:50.959Z,78.52
2022-11-24T14:01:45.998Z,78.84
2022-11-24T14:04:32.522Z,78.98
2022-11-24T14:07:09.638Z,79.12
2022-11-24T14:09:41.648Z,79.40
2022-11-24T14:12:15.485Z,79.38
2022-11-24T14:14:44.842Z,79.65
2022-11-24T14:17:20.570Z,79.86
2022-11-24T14:19:50.875Z,79.96
2022-11-24T14:23:01.058Z,80.19
2022-11-24T14:25:30.808Z,80.35
2022-11-24T14:27:59.299Z,80.52
2022-11-24T14:30:26.457Z,80.36
2022-11-24T14:32:57.430Z,78.50
2022-11-24T14:35:27.363Z,80.06
2022-11-24T14:37:54.217Z,80.42
2022-11-24T14:40:39.314Z,80.82
2022-11-24T14:43:18.014Z,80.98
2022-11-24T14:45:56.139Z,81.00
2022-11-24T14:48:29.499Z,81.66
2022-11-24T14:51:07.827Z,81.72
2022-11-24T14:53:37.676Z,81.91
2022-11-24T14:56:26.583Z,81.92
2022-11-24T14:58:54.286Z,82.38
2022-11-24T15:01:22.610Z,82.46
2022-11-24T15:04:17.861Z,82.35
2022-11-24T15:07:05.622Z,82.56
2022-11-24T15:09:50.647Z,82.95
2022-11-24T15:12:54.872Z,82.72
2022-11-24T15:15:26.543Z,82.93
2022-11-24T15:17:57.392Z,83.08
2022-11-24T15:20:23.873Z,83.32
2022-11-24T15:22:52.439Z,83.23
2022-11-24T15:25:33.974Z,83.35
2022-11-24T15:28:00.952Z,83.65
2022-11-24T15:30:27.845Z,83.47
2022-11-24T15:32:58.926Z,83.90
2022-11-24T15:35:29.476Z,83.64
2022-11-24T15:37:56.082Z,83.68
2022-11-24T15:40:22.755Z,83.88
2022-11-24T15:43:03.431Z,83.70
2022-11-24T15:45:34.306Z,84.10
2022-11-24T15:48:00.804Z,83.14
2022-11-24T15:50:27.375Z,84.23
2022-11-24T15:52:54.065Z,84.10
2022-11-24T15:55:24.816Z,84.29
2022-11-24T15:57:51.417Z,84.81
2022-11-24T16:00:23.606Z,83.17
2022-11-24T16:02:50.274Z,84.01
2022-11-24T16:05:17.824Z,82.94
2022-11-24T16:07:44.827Z,83.92
2022-11-24T16:10:31.248Z,84.62
2022-11-24T16:12:57.893Z,84.97
2022-11-24T16:15:24.467Z,85.14
2022-11-24T16:17:51.356Z,83.84
2022-11-24T16:20:18.081Z,84.63
2022-11-24T16:22:44.871Z,84.84
2022-11-24T16:25:12.406Z,84.92
2022-11-24T16:27:39.051Z,84.46
2022-11-24T16:30:07.015Z,84.55
2022-11-24T16:32:36.275Z,83.32
2022-11-24T16:35:03.340Z,84.89
2022-11-24T16:37:30.045Z,85.02
2022-11-24T16:39:57.548Z,85.20
2022-11-24T16:42:25.115Z,85.27
2022-11-24T16:44:52.596Z,85.54
2022-11-24T16:47:19.677Z,85.65
2022-11-24T16:49:49.468Z,85.59
2022-11-24T16:52:17.257Z,85.38
2022-11-24T16:54:46.485Z,85.82
2022-11-24T16:57:15.119Z,85.84
2022-11-24T16:59:46.032Z,86.09
2022-11-24T17:02:13.323Z,85.78
2022-11-24T17:04:39.974Z,86.10
2022-11-24T17:07:07.999Z,86.25
2022-11-24T17:09:40.520Z,86.08
2022-11-24T17:12:07.913Z,85.15
2022-11-24T17:14:34.869Z,85.67
2022-11-24T17:17:01.918Z,85.14
2022-11-24T17:19:31.794Z,84.06
2022-11-24T17:22:00.741Z,85.50
2022-11-24T17:24:27.427Z,85.57
2022-11-24T17:26:54.008Z,85.66
2022-11-24T17:29:22.845Z,85.43
2022-11-24T17:31:52.156Z,85.90
2022-11-24T17:34:19.027Z,85.32
2022-11-24T17:36:47.814Z,85.33
2022-11-24T17:39:14.445Z,83.73
2022-11-24T17:41:41.294Z,84.94
2022-11-24T17:44:10.725Z,85.20
2022-11-24T17:46:39.841Z,85.78
2022-11-24T17:49:13.092Z,85.61
2022-11-24T17:51:40.060Z,85.61
2022-11-24T17:54:31.283Z,85.51
2022-11-24T17:56:53.328Z,84.43
2022-11-24T17:59:19.978Z,85.43
2022-11-24T18:01:46.779Z,85.10
2022-11-24T18:04:15.975Z,84.91
2022-11-24T18:06:42.641Z,85.05
2022-11-24T18:09:11.942Z,85.47
2022-11-24T18:11:38.536Z,85.29
2022-11-24T18:14:05.157Z,85.30
2022-11-24T18:16:33.585Z,85.01
2022-11-24T18:19:09.637Z,85.48
2022-11-24T18:21:38.459Z,85.23
2022-11-24T18:24:08.412Z,85.38
2022-11-24T18:26:35.051Z,85.34
2022-11-24T18:29:04.032Z,85.82
2022-11-24T18:31:35.471Z,85.62
2022-11-24T18:34:04.268Z,85.96
2022-11-24T18:36:33.609Z,86.03
2022-11-24T18:39:01.433Z,86.09
2022-11-24T18:41:27.967Z,86.26
2022-11-24T18:43:54.520Z,85.98
2022-11-24T18:46:23.341Z,85.83
2022-11-24T18:48:51.982Z,85.33
2022-11-24T18:51:18.824Z,86.03
2022-11-24T18:53:46.635Z,86.27
2022-11-24T18:56:17.290Z,86.05
2022-11-24T18:58:44.576Z,85.99
2022-11-24T19:01:15.579Z,84.75
2022-11-24T19:03:49.031Z,85.78
2022-11-24T19:06:33.940Z,84.37
2022-11-24T19:09:08.265Z,85.31
2022-11-24T19:11:37.148Z,85.75
2022-11-24T19:14:06.373Z,85.67
2022-11-24T19:16:34.009Z,84.88
2022-11-24T19:19:02.682Z,85.91
2022-11-24T19:21:37.708Z,85.60
2022-11-24T19:24:05.999Z,85.70
2022-11-24T19:26:35.080Z,85.60
2022-11-24T19:29:02.188Z,86.14
2022-11-24T19:31:28.791Z,85.41
2022-11-24T19:33:57.981Z,85.72
2022-11-24T19:36:26.057Z,85.27
2022-11-24T19:38:55.012Z,85.64
2022-11-24T19:41:26.338Z,85.65
2022-11-24T19:43:56.702Z,84.36
2022-11-24T19:46:28.001Z,85.83
2022-11-24T19:48:57.868Z,85.68
2022-11-24T19:51:27.235Z,86.13
2022-11-24T19:53:56.899Z,86.21
2022-11-24T19:56:25.279Z,86.01
2022-11-24T19:58:53.209Z,86.38
2022-11-24T20:01:24.647Z,85.98
2022-11-24T20:03:55.941Z,86.32
2022-11-24T20:06:24.830Z,86.42
2022-11-24T20:08:53.842Z,85.64
2022-11-24T20:11:21.465Z,86.03
2022-11-24T20:13:49.797Z,86.45
2022-11-24T20:16:26.071Z,86.10
2022-11-24T20:18:55.217Z,86.26
2022-11-24T20:21:24.105Z,86.16
2022-11-24T20:23:59.616Z,86.53
2022-11-24T20:26:29.029Z,86.04
2022-11-24T20:28:56.994Z,86.10
2022-11-24T20:31:27.169Z,85.82
2022-11-24T20:33:53.796Z,86.27
2022-11-24T20:36:25.389Z,86.08
2022-11-24T20:38:53.337Z,86.07
2022-11-24T20:41:28.657Z,86.06
2022-11-24T20:44:00.340Z,86.00
2022-11-24T20:46:34.590Z,85.84
2022-11-24T20:49:03.522Z,85.97
2022-11-24T20:51:33.357Z,85.70
2022-11-24T20:54:08.218Z,85.27
2022-11-24T20:56:37.421Z,85.23
2022-11-24T20:59:13.663Z,85.34
2022-11-24T21:01:42.786Z,85.90
2022-11-24T21:04:13.638Z,85.98
2022-11-24T21:06:44.908Z,86.06
2022-11-24T21:09:11.702Z,86.18
2022-11-24T21:11:39.323Z,85.74
2022-11-24T21:14:11.305Z,86.07
2022-11-24T21:16:40.232Z,86.18
2022-11-24T21:19:12.740Z,86.08
2022-11-24T21:21:42.830Z,85.99
2022-11-24T21:24:14.586Z,86.14
2022-11-24T21:26:47.521Z,85.76
2022-11-24T21:29:17.169Z,85.88
2022-11-24T21:31:43.840Z,85.80
2022-11-24T21:34:15.092Z,86.04
2022-11-24T21:36:45.001Z,85.87
2022-11-24T21:39:14.024Z,86.24
2022-11-24T21:41:43.242Z,86.28
2022-11-24T21:44:11.677Z,86.58
2022-11-24T21:46:44.149Z,86.51
2022-11-24T21:49:14.681Z,86.28
2022-11-24T21:51:41.243Z,86.83
2022-11-24T21:54:08.018Z,87.37
2022-11-24T21:56:34.545Z,87.33
2022-11-24T21:59:03.452Z,87.19
2022-11-24T22:01:30.115Z,87.24
2022-11-24T22:03:57.005Z,87.00
2022-11-24T22:06:23.996Z,86.91
2022-11-24T22:08:50.594Z,86.90
2022-11-24T22:11:22.464Z,87.13
2022-11-24T22:13:50.059Z,86.98
2022-11-24T22:16:19.094Z,86.87
2022-11-24T22:18:46.347Z,87.18
2022-11-24T22:21:22.447Z,87.05
2022-11-24T22:23:52.448Z,86.91
2022-11-24T22:26:22.403Z,87.04
2022-11-24T22:28:49.252Z,87.14
2022-11-24T22:31:18.170Z,87.02
2022-11-24T22:33:45.764Z,87.14
2022-11-24T22:36:14.173Z,86.87
2022-11-24T22:38:41.195Z,86.75
2022-11-24T22:41:10.618Z,86.88
2022-11-24T22:43:38.595Z,86.97
2022-11-24T22:46:06.909Z,86.95
2022-11-24T22:48:35.935Z,86.69
2022-11-24T22:51:07.374Z,86.73
2022-11-24T22:53:34.249Z,86.86
2022-11-24T22:56:09.494Z,86.78
2022-11-24T22:58:37.035Z,86.41
2022-11-24T23:01:11.720Z,86.90
2022-11-24T23:03:39.134Z,86.80
2022-11-24T23:06:08.566Z,86.38
2022-11-24T23:08:36.104Z,86.38
2022-11-24T23:11:09.054Z,86.88
2022-11-24T23:13:38.948Z,86.71
2022-11-24T23:16:10.854Z,86.80
2022-11-24T23:18:37.764Z,86.88
2022-11-24T23:21:27.482Z,86.96
2022-11-24T23:23:54.598Z,86.86
2022-11-24T23:26:24.563Z,87.22
2022-11-24T23:28:51.157Z,86.96
2022-11-24T23:31:20.354Z,87.51
2022-11-24T23:33:47.608Z,87.26
2022-11-24T23:36:18.759Z,87.33
2022-11-24T23:38:48.441Z,87.46
2022-11-24T23:41:23.334Z,87.68
2022-11-24T23:43:50.198Z,87.50
2022-11-24T23:46:22.805Z,87.88
2022-11-24T23:48:51.873Z,87.94
2022-11-24T23:51:32.845Z,87.78
2022-11-24T23:54:00.299Z,88.36
2022-11-24T23:56:32.930Z,88.46
2022-11-24T23:59:01.029Z,88.06
